Time;durP1;ratioP1;P1;durP2;ratioP2;P2;SDS_P1;SDS_P2;PMS_P1;PMS_P2;Temp;Humidity;BMP_temperature;BMP_pressure;BME280_temperature;BME280_humidity;BME280_pressure;Samples;Min_cycle;Max_cycle;Signal;HPM_P1;HPM_P2
2022/08/22 00:00:15;;;;;;;7.10;5.50;;;18.80;99.90;;;;;;5051139;28;20187;-64
2022/08/22 00:03:02;;;;;;;5.67;5.27;;;18.60;99.90;;;;;;5050991;28;20523;-63
2022/08/22 00:05:44;;;;;;;6.67;5.80;;;18.50;99.90;;;;;;5050905;28;20229;-64
2022/08/22 00:08:13;;;;;;;6.40;5.43;;;18.40;99.90;;;;;;5051227;28;20198;-64
2022/08/22 00:11:04;;;;;;;5.50;5.10;;;18.40;99.90;;;;;;5051148;28;20179;-64
2022/08/22 00:14:03;;;;;;;6.23;5.63;;;18.40;99.90;;;;;;5050618;28;20175;-63
2022/08/22 00:16:32;;;;;;;7.47;5.63;;;18.40;99.90;;;;;;5051005;28;20182;-63
2022/08/22 00:19:11;;;;;;;7.77;7.27;;;18.40;99.90;;;;;;5051100;28;20202;-63
2022/08/22 00:21:57;;;;;;;7.97;7.47;;;18.30;99.90;;;;;;5050887;28;20218;-63
2022/08/22 00:24:40;;;;;;;8.03;6.53;;;18.20;99.90;;;;;;5050994;28;20255;-63
2022/08/22 00:27:20;;;;;;;8.10;7.40;;;18.10;99.90;;;;;;5055177;28;20583;-64
2022/08/22 00:30:04;;;;;;;11.03;6.67;;;18.00;99.90;;;;;;5054843;28;20174;-64
2022/08/22 00:32:58;;;;;;;6.63;5.63;;;17.90;99.90;;;;;;5054390;28;20214;-63
2022/08/22 00:35:40;;;;;;;5.67;5.17;;;17.80;99.90;;;;;;5054677;28;20211;-63
2022/08/22 00:38:32;;;;;;;6.83;6.23;;;17.70;99.90;;;;;;5054242;28;20207;-64
2022/08/22 00:41:16;;;;;;;6.63;6.13;;;17.60;99.90;;;;;;5054534;28;20174;-64
2022/08/22 00:44:07;;;;;;;7.60;6.70;;;17.60;99.90;;;;;;5054661;28;20717;-64
2022/08/22 00:46:47;;;;;;;7.50;6.20;;;17.50;99.90;;;;;;5054292;28;20583;-64
2022/08/22 00:49:22;;;;;;;7.10;6.03;;;17.40;99.90;;;;;;5054605;28;20170;-64
2022/08/22 00:51:50;;;;;;;5.83;5.40;;;17.40;99.90;;;;;;5054446;28;20638;-63
2022/08/22 00:54:52;;;;;;;9.80;6.93;;;17.30;99.90;;;;;;5053795;28;20191;-63
2022/08/22 00:57:49;;;;;;;9.60;8.87;;;17.30;99.90;;;;;;5054425;28;20296;-64
2022/08/22 01:00:18;;;;;;;12.53;8.53;;;17.30;99.90;;;;;;5054322;28;20175;-63
2022/08/22 01:03:07;;;;;;;10.93;9.87;;;17.30;99.90;;;;;;5054410;28;20261;-63
2022/08/22 01:05:57;;;;;;;11.60;8.77;;;17.30;99.90;;;;;;5053780;28;20546;-64
2022/08/22 01:08:32;;;;;;;10.30;9.60;;;17.20;99.90;;;;;;5054082;28;20236;-64
2022/08/22 01:11:40;;;;;;;10.37;9.47;;;17.20;99.90;;;;;;5054012;28;20182;-64
2022/08/22 01:14:24;;;;;;;8.87;7.97;;;17.20;99.90;;;;;;5047814;28;20199;-65
2022/08/22 01:17:01;;;;;;;8.67;8.07;;;17.20;99.90;;;;;;5054079;28;20239;-63
2022/08/22 01:19:38;;;;;;;9.63;8.77;;;17.20;99.90;;;;;;5054071;28;20671;-63
2022/08/22 01:22:22;;;;;;;10.27;9.43;;;17.10;99.90;;;;;;5053748;28;20188;-63
2022/08/22 01:25:17;;;;;;;12.57;11.43;;;17.10;99.90;;;;;;5053308;28;20203;-63
2022/08/22 01:28:04;;;;;;;10.17;9.47;;;17.10;99.90;;;;;;5053637;28;20182;-64
2022/08/22 01:31:11;;;;;;;9.20;8.37;;;17.10;99.90;;;;;;5053660;28;20179;-63
2022/08/22 01:33:50;;;;;;;12.00;10.90;;;17.10;99.90;;;;;;5053382;28;20178;-63
2022/08/22 01:36:45;;;;;;;9.97;9.07;;;17.10;99.90;;;;;;5052026;28;20179;-63
2022/08/22 01:39:27;;;;;;;9.13;8.53;;;17.00;99.90;;;;;;5033809;28;20233;-63
2022/08/22 01:42:11;;;;;;;12.40;8.70;;;16.90;99.90;;;;;;5034889;28;20505;-63
2022/08/22 01:44:57;;;;;;;7.80;7.27;;;16.80;99.90;;;;;;5052923;28;20206;-64
2022/08/22 01:47:32;;;;;;;9.23;8.17;;;16.70;99.90;;;;;;5033541;28;20545;-63
2022/08/22 01:50:21;;;;;;;7.57;7.00;;;16.70;99.90;;;;;;5037242;28;20229;-64
2022/08/22 01:53:13;;;;;;;8.30;7.60;;;16.70;99.90;;;;;;5052972;28;20183;-64
2022/08/22 01:56:08;;;;;;;9.60;8.27;;;16.70;99.90;;;;;;5052972;28;20195;-64
2022/08/22 01:58:41;;;;;;;8.70;7.77;;;16.60;99.90;;;;;;5051268;28;20222;-64
2022/08/22 02:01:10;;;;;;;8.40;7.60;;;16.60;99.90;;;;;;5053295;28;20167;-63
2022/08/22 02:04:06;;;;;;;8.80;8.07;;;16.60;99.90;;;;;;5052569;28;20715;-63
2022/08/22 02:06:44;;;;;;;10.03;6.93;;;16.60;99.90;;;;;;5053021;28;20171;-64
2022/08/22 02:09:19;;;;;;;7.70;7.10;;;16.70;99.90;;;;;;5052855;28;20236;-63
2022/08/22 02:12:17;;;;;;;7.53;6.73;;;16.70;99.90;;;;;;5052806;28;20628;-64
2022/08/22 02:14:54;;;;;;;7.53;6.63;;;16.70;99.90;;;;;;5021269;28;20299;-64
2022/08/22 02:17:26;;;;;;;7.50;6.67;;;16.60;99.90;;;;;;5052850;28;20675;-64
2022/08/22 02:20:16;;;;;;;7.50;6.73;;;16.60;99.90;;;;;;5052943;28;20178;-64
2022/08/22 02:23:06;;;;;;;8.43;7.70;;;16.70;99.90;;;;;;5051342;28;20221;-63
2022/08/22 02:25:50;;;;;;;6.93;6.33;;;16.70;99.90;;;;;;5052430;28;20202;-64
2022/08/22 02:28:24;;;;;;;8.93;7.40;;;16.80;99.90;;;;;;5052859;28;20236;-69
2022/08/22 02:31:11;;;;;;;8.03;6.47;;;16.80;99.90;;;;;;5053459;28;20170;-67
2022/08/22 02:33:48;;;;;;;7.27;6.63;;;16.80;99.90;;;;;;5052831;28;20218;-68
2022/08/22 02:36:14;;;;;;;7.73;7.23;;;16.80;99.90;;;;;;5033585;28;20555;-67
2022/08/22 02:39:17;;;;;;;8.63;7.67;;;16.80;99.90;;;;;;5033180;28;20202;-66
2022/08/22 02:42:10;;;;;;;8.63;7.33;;;16.70;99.90;;;;;;5033323;28;20171;-66
2022/08/22 02:44:40;;;;;;;7.50;6.80;;;16.70;99.90;;;;;;5032587;28;20221;-65
2022/08/22 02:47:10;;;;;;;8.83;6.93;;;16.70;99.90;;;;;;5032838;28;20645;-67
2022/08/22 02:49:49;;;;;;;7.80;7.10;;;16.60;99.90;;;;;;5052949;28;20727;-64
2022/08/22 02:52:25;;;;;;;7.27;6.83;;;16.50;99.90;;;;;;5053102;28;20568;-65
2022/08/22 02:55:10;;;;;;;8.23;7.43;;;16.40;99.90;;;;;;5052420;28;20277;-69
2022/08/22 02:57:44;;;;;;;8.27;7.50;;;16.30;99.90;;;;;;5052651;28;20271;-66
2022/08/22 03:00:26;;;;;;;7.90;7.30;;;16.30;99.90;;;;;;5052797;28;20185;-67
2022/08/22 03:02:51;;;;;;;8.30;7.67;;;16.20;99.90;;;;;;5052511;28;20632;-68
2022/08/22 03:05:27;;;;;;;8.60;7.80;;;16.20;99.90;;;;;;5052347;28;20252;-67
2022/08/22 03:08:22;;;;;;;8.60;7.63;;;16.30;99.90;;;;;;5052882;28;20178;-63
2022/08/22 03:11:01;;;;;;;9.07;7.83;;;16.20;99.90;;;;;;5052699;28;20178;-66
2022/08/22 03:14:11;;;;;;;10.33;8.00;;;16.10;99.90;;;;;;5051970;28;20182;-65
2022/08/22 03:16:54;;;;;;;8.47;7.67;;;16.00;99.90;;;;;;5047967;28;20272;-64
2022/08/22 03:19:27;;;;;;;7.63;7.03;;;16.00;99.90;;;;;;5052428;28;20179;-66
2022/08/22 03:22:09;;;;;;;10.73;8.20;;;16.00;99.90;;;;;;5052581;28;20171;-65
2022/08/22 03:24:40;;;;;;;7.57;6.93;;;16.10;99.90;;;;;;5050144;28;20271;-65
2022/08/22 03:27:18;;;;;;;8.50;7.43;;;16.10;99.90;;;;;;5052341;28;20171;-65
2022/08/22 03:30:01;;;;;;;8.17;7.37;;;16.10;99.90;;;;;;5052290;28;20178;-67
2022/08/22 03:32:51;;;;;;;10.47;7.47;;;16.20;99.90;;;;;;5051956;28;20587;-67
2022/08/22 03:35:49;;;;;;;8.10;7.30;;;16.20;99.90;;;;;;5051901;28;20202;-70
2022/08/22 03:38:21;;;;;;;7.47;6.80;;;16.20;99.90;;;;;;5032328;28;20246;-63
2022/08/22 03:41:05;;;;;;;8.50;7.70;;;16.20;99.90;;;;;;5035814;28;20612;-66
2022/08/22 03:43:49;;;;;;;9.70;8.83;;;16.20;99.90;;;;;;5052388;28;20271;-66
2022/08/22 03:46:53;;;;;;;9.60;8.67;;;16.10;99.90;;;;;;5050010;28;20264;-65
2022/08/22 03:50:02;;;;;;;8.73;7.60;;;16.10;99.90;;;;;;5051506;28;20667;-64
2022/08/22 03:53:06;;;;;;;8.10;7.30;;;16.10;99.90;;;;;;5051099;28;20171;-63
2022/08/22 03:55:44;;;;;;;8.20;7.40;;;16.10;99.90;;;;;;5019367;28;20210;-64
2022/08/22 03:58:26;;;;;;;12.53;8.33;;;16.20;99.90;;;;;;5051323;28;20198;-64
2022/08/22 04:00:51;;;;;;;10.00;9.00;;;16.20;99.90;;;;;;5054009;28;20167;-63
2022/08/22 04:03:29;;;;;;;9.20;7.90;;;16.30;99.90;;;;;;5055479;28;20193;-64
2022/08/22 04:06:00;;;;;;;8.27;7.67;;;16.30;99.90;;;;;;5035742;28;20620;-64
2022/08/22 04:08:40;;;;;;;8.30;7.63;;;16.30;99.90;;;;;;5035648;28;20171;-64
2022/08/22 04:11:27;;;;;;;10.53;8.10;;;16.30;99.90;;;;;;5035478;28;20185;-64
2022/08/22 04:14:11;;;;;;;9.50;7.80;;;16.30;99.90;;;;;;5053884;28;20181;-64
2022/08/22 04:17:10;;;;;;;8.97;8.20;;;16.20;99.90;;;;;;5055153;28;20208;-64
2022/08/22 04:19:52;;;;;;;8.30;7.47;;;16.20;99.90;;;;;;5055057;28;20590;-63
2022/08/22 04:22:48;;;;;;;8.40;7.60;;;16.10;99.90;;;;;;5055621;28;20555;-64
2022/08/22 04:25:22;;;;;;;9.40;8.43;;;16.10;99.90;;;;;;5054788;28;20560;-65
2022/08/22 04:27:54;;;;;;;8.90;7.83;;;16.10;99.90;;;;;;5055467;28;20174;-63
2022/08/22 04:30:42;;;;;;;8.20;7.40;;;16.10;99.90;;;;;;5053795;28;20171;-63
2022/08/22 04:33:43;;;;;;;8.83;8.03;;;16.10;99.90;;;;;;5054917;28;20175;-64
2022/08/22 04:36:31;;;;;;;8.63;7.60;;;16.00;99.90;;;;;;5052544;28;20217;-64
2022/08/22 04:39:03;;;;;;;10.37;7.43;;;16.00;99.90;;;;;;5035342;28;20215;-64
2022/08/22 04:41:46;;;;;;;11.30;9.83;;;16.00;99.90;;;;;;5035292;28;20633;-64
2022/08/22 04:44:22;;;;;;;12.67;11.50;;;16.00;99.90;;;;;;5055325;28;20669;-63
2022/08/22 04:47:03;;;;;;;18.27;16.53;;;16.00;99.90;;;;;;5054900;28;20166;-63
2022/08/22 04:49:36;;;;;;;11.87;10.77;;;16.00;99.90;;;;;;5055041;28;20301;-64
2022/08/22 04:52:17;;;;;;;10.00;9.07;;;16.10;99.90;;;;;;5054984;28;20240;-62
2022/08/22 04:54:55;;;;;;;12.87;9.40;;;16.10;99.90;;;;;;5053797;28;20655;-63
2022/08/22 04:58:04;;;;;;;8.67;7.97;;;16.30;99.90;;;;;;5054232;28;20733;-65
2022/08/22 05:00:53;;;;;;;8.50;7.83;;;16.30;99.90;;;;;;5054039;28;20171;-63
2022/08/22 05:03:22;;;;;;;9.33;7.87;;;16.30;99.90;;;;;;5054257;28;20179;-65
2022/08/22 05:05:49;;;;;;;11.37;8.43;;;16.30;99.90;;;;;;5053782;28;20190;-64
2022/08/22 05:08:22;;;;;;;13.77;9.50;;;16.40;99.90;;;;;;5054284;28;20182;-63
2022/08/22 05:10:49;;;;;;;9.30;8.37;;;16.40;99.90;;;;;;5053160;28;20271;-64
2022/08/22 05:13:23;;;;;;;9.83;8.43;;;16.40;99.90;;;;;;5053452;28;20639;-63
2022/08/22 05:15:53;;;;;;;9.20;8.20;;;16.50;99.90;;;;;;5053792;28;20293;-64
2022/08/22 05:18:36;;;;;;;9.10;8.40;;;16.50;99.90;;;;;;5054041;28;20333;-63
2022/08/22 05:21:06;;;;;;;9.10;8.20;;;16.60;99.90;;;;;;5053755;28;20281;-63
2022/08/22 05:23:43;;;;;;;9.43;8.63;;;16.60;99.90;;;;;;5053616;28;20171;-65
2022/08/22 05:26:11;;;;;;;17.50;9.77;;;16.70;99.90;;;;;;5053441;28;20648;-63
2022/08/22 05:28:42;;;;;;;11.77;9.13;;;16.70;99.90;;;;;;5053604;28;20178;-63
2022/08/22 05:31:12;;;;;;;11.30;10.17;;;16.70;99.90;;;;;;5053669;28;20659;-64
2022/08/22 05:33:46;;;;;;;10.33;9.27;;;16.80;99.90;;;;;;5053393;28;20175;-63
2022/08/22 05:36:23;;;;;;;13.30;12.07;;;16.80;99.90;;;;;;5053425;28;20244;-63
2022/08/22 05:39:16;;;;;;;10.43;9.40;;;16.90;99.90;;;;;;5053482;28;20199;-63
2022/08/22 05:41:43;;;;;;;9.27;8.67;;;17.00;99.90;;;;;;5045700;28;20697;-62
2022/08/22 05:44:23;;;;;;;11.03;10.03;;;17.00;99.90;;;;;;5053160;28;20167;-63
2022/08/22 05:47:02;;;;;;;11.17;10.13;;;17.00;99.90;;;;;;5053099;28;20179;-64
2022/08/22 05:49:46;;;;;;;19.43;10.70;;;17.10;99.90;;;;;;5053180;28;20171;-63
2022/08/22 05:52:20;;;;;;;12.03;11.03;;;17.20;99.90;;;;;;5061646;28;20175;-63
2022/08/22 05:54:57;;;;;;;12.17;11.23;;;17.20;99.90;;;;;;5058663;28;20616;-64
2022/08/22 05:57:32;;;;;;;14.67;8.07;;;17.30;99.90;;;;;;5053064;28;20205;-64
2022/08/22 06:00:11;;;;;;;15.13;8.67;;;17.40;99.90;;;;;;5053131;28;20515;-64
2022/08/22 06:03:13;;;;;;;9.73;7.90;;;17.40;99.90;;;;;;5052715;28;20171;-64
2022/08/22 06:05:42;;;;;;;8.03;7.20;;;17.50;99.90;;;;;;5052319;28;20194;-63
2022/08/22 06:08:33;;;;;;;11.87;8.23;;;17.60;99.90;;;;;;5052922;28;20171;-64
2022/08/22 06:11:06;;;;;;;11.93;8.10;;;17.90;99.90;;;;;;5033127;28;20175;-64
2022/08/22 06:13:41;;;;;;;10.07;8.03;;;18.10;99.90;;;;;;5033115;28;20237;-63
2022/08/22 06:16:21;;;;;;;8.53;7.57;;;18.40;99.90;;;;;;5052904;28;20202;-63
2022/08/22 06:18:49;;;;;;;14.67;5.73;;;18.80;99.90;;;;;;5052260;28;20202;-63
2022/08/22 06:21:20;;;;;;;6.90;6.30;;;19.30;99.90;;;;;;5052885;28;20175;-64
2022/08/22 06:23:55;;;;;;;6.60;5.90;;;19.50;99.90;;;;;;5051251;28;20179;-64
2022/08/22 06:26:24;;;;;;;10.43;7.63;;;19.60;99.90;;;;;;5052202;28;20182;-64
2022/08/22 06:28:53;;;;;;;8.60;7.73;;;19.50;99.90;;;;;;5051302;28;20578;-64
2022/08/22 06:31:22;;;;;;;7.93;5.83;;;19.50;99.90;;;;;;5052612;28;20170;-64
2022/08/22 06:34:12;;;;;;;6.93;6.23;;;19.50;99.90;;;;;;5052055;28;20197;-64
2022/08/22 06:36:43;;;;;;;12.00;6.33;;;19.50;99.90;;;;;;5050402;28;20648;-64
2022/08/22 06:39:17;;;;;;;10.67;6.77;;;19.50;99.90;;;;;;5052419;28;20198;-63
2022/08/22 06:42:01;;;;;;;7.17;6.57;;;19.50;99.90;;;;;;5052065;28;20178;-63
2022/08/22 06:44:34;;;;;;;12.47;6.37;;;19.70;99.90;;;;;;5051664;28;20551;-64
2022/08/22 06:47:05;;;;;;;8.13;7.33;;;19.90;99.90;;;;;;5052214;28;20171;-64
2022/08/22 06:49:34;;;;;;;7.55;6.47;;;20.30;99.90;;;;;;5052393;28;20217;-64
2022/08/22 06:52:04;;;;;;;6.15;5.28;;;21.00;99.90;;;;;;5051985;28;20236;-64
2022/08/22 06:54:34;;;;;;;8.15;4.90;;;21.70;99.90;;;;;;5051689;28;20190;-64
2022/08/22 06:57:02;;;;;;;7.20;5.07;;;22.70;99.90;;;;;;5051696;28;20268;-64
2022/08/22 06:59:30;;;;;;;6.18;4.25;;;23.60;99.90;;;;;;5051744;28;20240;-64
2022/08/22 07:02:07;;;;;;;5.50;4.68;;;24.40;99.90;;;;;;5051742;28;20261;-63
2022/08/22 07:04:33;;;;;;;5.32;4.63;;;25.20;99.90;;;;;;5051386;28;20300;-64
2022/08/22 07:07:00;;;;;;;6.03;4.82;;;25.70;99.90;;;;;;5051545;28;20277;-64
2022/08/22 07:09:40;;;;;;;5.13;4.72;;;25.90;99.90;;;;;;5052083;28;20535;-65
2022/08/22 07:12:30;;;;;;;7.53;4.38;;;25.90;99.90;;;;;;5051579;28;20182;-63
2022/08/22 07:15:10;;;;;;;5.85;4.68;;;26.10;99.90;;;;;;5043558;28;20210;-64
2022/08/22 07:17:45;;;;;;;8.93;5.60;;;26.20;99.90;;;;;;5051553;28;20195;-64
2022/08/22 07:20:22;;;;;;;5.72;5.13;;;26.50;99.90;;;;;;5051856;28;20624;-65
2022/08/22 07:22:56;;;;;;;9.93;4.50;;;26.60;99.90;;;;;;5051497;28;20206;-64
2022/08/22 07:25:23;;;;;;;7.22;5.60;;;26.90;99.90;;;;;;5051060;28;20212;-64
2022/08/22 07:28:07;;;;;;;7.80;5.40;;;27.00;99.90;;;;;;5051763;28;20194;-65
2022/08/22 07:30:53;;;;;;;6.40;5.32;;;27.40;99.90;;;;;;5051338;28;20666;-64
2022/08/22 07:33:46;;;;;;;9.80;4.95;;;27.60;99.90;;;;;;5040773;28;20194;-65
2022/08/22 07:36:21;;;;;;;4.75;4.28;;;27.70;99.90;;;;;;5050980;28;20201;-65
2022/08/22 07:38:58;;;;;;;7.43;4.55;;;28.10;99.90;;;;;;5051307;28;20225;-64
2022/08/22 07:41:36;;;;;;;6.10;4.88;;;28.50;99.90;;;;;;5051225;28;20178;-66
2022/08/22 07:44:17;;;;;;;4.82;3.90;;;29.00;99.90;;;;;;5051048;28;20193;-65
2022/08/22 07:46:59;;;;;;;7.97;4.22;;;29.60;99.90;;;;;;5050971;28;20324;-65
2022/08/22 07:49:34;;;;;;;6.07;3.78;;;30.20;99.90;;;;;;5051174;28;20205;-65
2022/08/22 07:52:09;;;;;;;8.25;4.55;;;30.80;99.90;;;;;;5051566;28;20177;-65
2022/08/22 07:54:56;;;;;;;5.43;4.20;;;31.30;99.90;;;;;;5050475;28;20210;-65
2022/08/22 07:57:25;;;;;;;6.35;4.45;;;31.30;99.90;;;;;;5051161;28;20212;-64
2022/08/22 07:59:54;;;;;;;10.13;4.85;;;31.50;99.90;;;;;;5051013;28;20214;-65
2022/08/22 08:02:22;;;;;;;7.05;4.72;;;31.40;99.90;;;;;;5051300;28;20227;-64
2022/08/22 08:04:50;;;;;;;8.50;4.30;;;31.20;99.90;;;;;;5050349;28;20675;-64
2022/08/22 08:07:19;;;;;;;5.35;4.38;;;31.10;99.90;;;;;;5051281;28;20186;-64
2022/08/22 08:09:51;;;;;;;7.97;4.50;;;31.10;99.90;;;;;;5050815;28;20647;-64
2022/08/22 08:12:21;;;;;;;6.43;4.10;;;31.30;99.90;;;;;;5051161;28;20535;-64
2022/08/22 08:14:51;;;;;;;7.75;4.05;;;31.60;99.90;;;;;;5050320;28;20206;-65
2022/08/22 08:17:25;;;;;;;7.65;4.15;;;31.40;99.90;;;;;;5051131;28;20214;-65
2022/08/22 08:19:51;;;;;;;6.93;4.40;;;31.50;99.90;;;;;;5050875;28;20178;-65
2022/08/22 08:22:22;;;;;;;6.45;4.18;;;31.80;99.90;;;;;;5049965;28;20213;-66
2022/08/22 08:24:49;;;;;;;7.20;3.78;;;31.80;99.90;;;;;;5050339;28;20616;-65
2022/08/22 08:30:15;;;;;;;5.63;4.50;;;32.70;99.90;;;;;;5051668;28;20171;-65
2022/08/22 08:32:44;;;;;;;6.75;3.92;;;33.20;99.90;;;;;;5050578;28;20185;-65
2022/08/22 08:35:30;;;;;;;4.85;3.83;;;33.40;99.90;;;;;;5050613;28;20664;-65
2022/08/22 08:38:00;;;;;;;4.20;3.90;;;33.30;99.90;;;;;;5050572;28;20206;-65
2022/08/22 08:40:34;;;;;;;5.82;5.35;;;33.50;99.90;;;;;;5050737;28;20640;-65
2022/08/22 08:43:28;;;;;;;5.03;3.75;;;34.00;99.90;;;;;;5050559;28;20186;-65
2022/08/22 08:45:57;;;;;;;4.50;3.35;;;34.00;99.90;;;;;;5051861;28;20233;-65
2022/08/22 08:48:48;;;;;;;3.95;3.55;;;34.20;99.90;;;;;;5053979;28;20186;-65
2022/08/22 08:51:42;;;;;;;5.80;3.20;;;34.50;99.40;;;;;;5054583;28;20182;-65
2022/08/22 08:54:14;;;;;;;5.13;3.50;;;34.60;99.60;;;;;;5054071;28;20266;-65
2022/08/22 08:56:54;;;;;;;5.00;3.78;;;34.30;97.30;;;;;;5054126;28;20276;-65
2022/08/22 08:59:43;;;;;;;4.03;2.78;;;34.20;97.80;;;;;;5054271;28;20566;-65
2022/08/22 09:02:19;;;;;;;6.03;3.80;;;34.40;97.60;;;;;;5054382;28;20178;-65
2022/08/22 09:05:17;;;;;;;6.15;3.30;;;34.60;96.30;;;;;;5053707;28;20548;-65
2022/08/22 09:08:04;;;;;;;7.72;3.20;;;34.50;95.20;;;;;;5030995;28;20225;-65
2022/08/22 09:11:11;;;;;;;3.67;3.38;;;34.10;94.30;;;;;;5054046;28;20445;-64
2022/08/22 09:13:53;;;;;;;4.88;4.47;;;33.40;94.30;;;;;;4991727;28;20275;-64
2022/08/22 09:16:36;;;;;;;5.60;4.45;;;32.90;94.00;;;;;;5048303;28;20240;-65
2022/08/22 09:19:26;;;;;;;4.88;3.72;;;32.70;95.20;;;;;;5053595;28;20279;-64
2022/08/22 09:22:01;;;;;;;3.50;3.20;;;32.60;93.30;;;;;;5024421;28;20628;-65
2022/08/22 09:24:45;;;;;;;3.15;2.88;;;32.80;94.30;;;;;;5052858;28;20590;-65
2022/08/22 09:27:19;;;;;;;3.00;2.53;;;32.80;91.70;;;;;;5052864;28;20213;-64
2022/08/22 09:29:56;;;;;;;5.07;4.70;;;32.50;92.90;;;;;;5052718;28;20258;-64
2022/08/22 09:32:50;;;;;;;4.47;2.85;;;32.10;92.00;;;;;;5053441;28;20539;-64
2022/08/22 09:35:31;;;;;;;3.80;3.20;;;31.80;92.40;;;;;;5052309;28;20201;-65
2022/08/22 09:38:02;;;;;;;5.82;3.28;;;31.70;91.00;;;;;;5053607;28;20198;-64
2022/08/22 09:40:31;;;;;;;4.75;2.90;;;32.20;91.80;;;;;;5053230;28;20174;-64
2022/08/22 09:43:05;;;;;;;3.38;2.35;;;32.80;92.00;;;;;;5053336;28;20170;-65
2022/08/22 09:45:45;;;;;;;4.95;2.67;;;33.50;88.90;;;;;;5052241;28;20496;-64
2022/08/22 09:48:36;;;;;;;3.35;2.90;;;34.30;90.50;;;;;;5052698;28;20446;-65
2022/08/22 09:51:30;;;;;;;4.55;2.78;;;34.80;84.30;;;;;;5033665;28;20183;-65
2022/08/22 09:53:56;;;;;;;5.15;2.72;;;35.40;86.20;;;;;;5038119;28;20179;-65
2022/08/22 09:56:32;;;;;;;3.53;3.22;;;35.80;81.80;;;;;;5053213;28;20178;-65
2022/08/22 09:59:18;;;;;;;4.38;4.07;;;36.30;80.40;;;;;;5056238;28;20265;-65
2022/08/22 10:02:02;;;;;;;4.65;4.25;;;36.10;76.60;;;;;;5068506;28;20635;-65
2022/08/22 10:04:40;;;;;;;3.88;3.58;;;36.10;75.30;;;;;;5067264;28;20197;-65
2022/08/22 10:07:26;;;;;;;3.10;2.65;;;35.60;76.20;;;;;;5073189;28;20173;-65
2022/08/22 10:10:03;;;;;;;5.57;3.35;;;34.50;76.90;;;;;;5056226;28;20578;-65
2022/08/22 10:12:49;;;;;;;3.80;3.10;;;34.20;79.00;;;;;;5052899;28;20166;-64
2022/08/22 10:15:39;;;;;;;3.42;3.13;;;34.80;80.70;;;;;;5052324;28;20205;-65
2022/08/22 10:18:15;;;;;;;5.75;4.57;;;35.80;80.00;;;;;;5051978;28;20203;-64
2022/08/22 10:21:10;;;;;;;4.05;3.05;;;36.60;74.10;;;;;;5052685;28;20197;-63
2022/08/22 10:23:59;;;;;;;6.20;2.72;;;37.20;75.10;;;;;;5052143;28;20266;-64
2022/08/22 10:26:46;;;;;;;5.18;2.30;;;38.00;72.90;;;;;;5052665;28;20171;-63
2022/08/22 10:29:14;;;;;;;3.85;3.30;;;38.70;70.90;;;;;;5051535;28;20210;-64
2022/08/22 10:31:56;;;;;;;7.32;3.42;;;39.10;64.50;;;;;;5052403;28;20185;-64
2022/08/22 10:34:28;;;;;;;3.67;3.30;;;38.90;63.10;;;;;;5051942;28;20198;-64
2022/08/22 10:37:00;;;;;;;4.70;2.95;;;38.40;64.20;;;;;;5052432;28;20228;-63
2022/08/22 10:39:35;;;;;;;4.22;3.80;;;37.70;63.90;;;;;;5051941;28;20207;-64
2022/08/22 10:42:18;;;;;;;5.97;3.65;;;37.00;65.80;;;;;;5052401;28;20170;-64
2022/08/22 10:44:59;;;;;;;5.30;4.82;;;36.40;64.70;;;;;;5073547;22;20222;-65
2022/08/22 10:47:34;;;;;;;3.70;3.35;;;35.60;65.10;;;;;;5052682;28;20175;-63
2022/08/22 10:50:13;;;;;;;6.30;3.50;;;35.30;63.00;;;;;;5051749;28;20186;-65
2022/08/22 10:52:47;;;;;;;4.85;4.45;;;35.00;66.90;;;;;;5052106;28;20198;-65
2022/08/22 10:55:24;;;;;;;6.35;5.78;;;35.00;64.50;;;;;;5047422;28;20221;-64
2022/08/22 10:57:59;;;;;;;6.32;5.25;;;34.90;65.90;;;;;;5053176;28;20292;-64
2022/08/22 11:00:52;;;;;;;6.22;5.80;;;34.60;65.50;;;;;;5052033;28;20174;-65
2022/08/22 11:03:23;;;;;;;3.47;3.20;;;34.70;63.90;;;;;;5065844;28;20178;-65
2022/08/22 11:05:51;;;;;;;17.95;3.60;;;34.10;64.10;;;;;;5071941;28;20221;-64
2022/08/22 11:08:26;;;;;;;8.20;5.20;;;33.90;66.10;;;;;;5058633;28;20223;-64
2022/08/22 11:11:00;;;;;;;5.15;3.58;;;33.70;66.20;;;;;;5051898;28;20209;-63
2022/08/22 11:13:28;;;;;;;4.38;3.38;;;33.60;67.60;;;;;;5065100;28;20223;-64
2022/08/22 11:15:59;;;;;;;3.95;3.65;;;33.60;66.00;;;;;;5071829;28;20201;-63
2022/08/22 11:18:46;;;;;;;5.32;3.38;;;33.50;70.00;;;;;;5058393;28;20225;-64
2022/08/22 11:21:36;;;;;;;6.22;5.72;;;33.80;68.90;;;;;;5051883;28;20722;-64
2022/08/22 11:24:08;;;;;;;8.68;4.28;;;34.20;67.50;;;;;;5052596;28;20265;-63
2022/08/22 11:26:45;;;;;;;6.10;5.40;;;34.40;67.20;;;;;;5051709;28;20282;-64
2022/08/22 11:29:25;;;;;;;7.90;6.28;;;34.60;67.10;;;;;;5069861;28;20180;-64
2022/08/22 11:31:50;;;;;;;4.70;4.25;;;35.10;67.90;;;;;;5071761;28;20267;-64
2022/08/22 11:34:42;;;;;;;5.40;3.40;;;35.50;63.70;;;;;;5053129;28;20174;-64
2022/08/22 11:37:21;;;;;;;4.70;4.32;;;35.80;63.40;;;;;;5051457;28;20178;-64
2022/08/22 11:40:19;;;;;;;8.35;4.40;;;36.30;65.40;;;;;;5071898;28;20173;-65
2022/08/22 11:43:05;;;;;;;5.05;3.28;;;37.10;63.20;;;;;;5066466;28;20229;-65
2022/08/22 11:45:43;;;;;;;2.95;2.65;;;38.00;63.20;;;;;;5050845;28;20211;-63
2022/08/22 11:48:20;;;;;;;3.05;2.78;;;39.00;60.90;;;;;;5063793;28;20670;-63
2022/08/22 11:51:24;;;;;;;3.72;3.28;;;40.30;59.90;;;;;;5051894;28;20214;-64
2022/08/22 11:54:07;;;;;;;3.67;2.88;;;41.00;56.20;;;;;;5068668;28;20180;-65
2022/08/22 11:56:41;;;;;;;3.88;2.72;;;41.40;57.00;;;;;;5071216;28;20209;-64
2022/08/22 11:59:29;;;;;;;3.13;2.30;;;41.50;55.00;;;;;;5051479;28;20705;-65
2022/08/22 12:02:06;;;;;;;9.60;3.13;;;41.60;54.00;;;;;;5054282;28;20183;-66
2022/08/22 12:04:39;;;;;;;4.20;2.60;;;41.30;53.30;;;;;;5059992;28;20562;-66
2022/08/22 12:07:08;;;;;;;3.28;2.97;;;41.00;52.80;;;;;;5066780;28;20201;-65
2022/08/22 12:09:50;;;;;;;3.45;2.40;;;40.60;52.20;;;;;;5051292;28;20167;-66
2022/08/22 12:12:19;;;;;;;5.32;3.30;;;40.30;53.00;;;;;;5051440;28;20225;-66
2022/08/22 12:14:47;;;;;;;3.65;3.08;;;39.90;52.60;;;;;;5050674;28;20190;-66
2022/08/22 12:17:41;;;;;;;3.47;2.50;;;40.00;53.00;;;;;;5064056;28;20182;-66
2022/08/22 12:20:28;;;;;;;2.40;2.08;;;40.20;50.00;;;;;;5076614;28;20213;-65
2022/08/22 12:23:13;;;;;;;4.22;3.53;;;40.00;52.60;;;;;;5075325;28;20177;-66
2022/08/22 12:25:49;;;;;;;2.83;2.47;;;40.80;51.90;;;;;;5073121;28;20229;-66
2022/08/22 12:28:35;;;;;;;2.63;2.40;;;40.90;53.30;;;;;;5075016;28;20219;-64
2022/08/22 12:31:06;;;;;;;4.05;2.60;;;40.80;49.70;;;;;;5055007;28;20181;-66
2022/08/22 12:33:34;;;;;;;2.60;2.40;;;40.10;51.50;;;;;;5054913;28;20178;-66
2022/08/22 12:36:03;;;;;;;2.40;2.30;;;39.70;49.80;;;;;;5074334;28;20625;-65
2022/08/22 12:38:37;;;;;;;3.33;3.03;;;39.20;51.40;;;;;;5074807;28;20213;-65
2022/08/22 12:41:14;;;;;;;3.00;2.72;;;38.30;51.30;;;;;;5055302;28;20189;-65
2022/08/22 12:43:58;;;;;;;5.43;3.20;;;37.40;52.50;;;;;;5066361;28;20182;-65
2022/08/22 12:46:26;;;;;;;4.72;4.32;;;36.90;54.40;;;;;;5073458;28;20573;-65
2022/08/22 12:49:07;;;;;;;6.40;3.55;;;36.20;53.60;;;;;;5059058;28;20261;-65
2022/08/22 12:51:45;;;;;;;5.15;4.65;;;35.40;53.20;;;;;;5072981;28;20638;-65
2022/08/22 12:54:19;;;;;;;6.07;5.63;;;35.10;56.10;;;;;;5054361;28;20524;-65
2022/08/22 12:57:03;;;;;;;6.05;5.68;;;35.00;54.30;;;;;;5056791;28;20555;-66
2022/08/22 12:59:41;;;;;;;6.50;5.90;;;34.80;55.60;;;;;;5074402;28;20197;-65
2022/08/22 13:02:28;;;;;;;9.38;5.57;;;34.60;55.50;;;;;;5069304;28;20163;-65
2022/08/22 13:05:01;;;;;;;3.22;2.90;;;34.50;56.00;;;;;;5054179;28;20207;-64
2022/08/22 13:07:35;;;;;;;5.30;3.28;;;34.20;55.30;;;;;;5061483;28;20174;-66
2022/08/22 13:10:14;;;;;;;4.15;3.25;;;33.80;56.40;;;;;;5074441;28;20227;-65
2022/08/22 13:12:47;;;;;;;6.72;3.72;;;33.70;58.00;;;;;;5064462;28;20263;-65
2022/08/22 13:15:30;;;;;;;8.50;3.72;;;33.60;56.50;;;;;;5070053;28;20202;-65
2022/08/22 13:18:00;;;;;;;4.50;3.55;;;33.60;58.10;;;;;;5073999;28;20697;-66
2022/08/22 13:20:35;;;;;;;3.90;3.40;;;33.60;57.20;;;;;;5074175;28;20652;-66
2022/08/22 13:23:11;;;;;;;3.97;3.75;;;33.50;58.10;;;;;;5074454;28;20276;-65
2022/08/22 13:25:55;;;;;;;5.00;4.05;;;33.60;57.50;;;;;;5073716;28;20328;-66
2022/08/22 13:28:22;;;;;;;4.30;3.20;;;33.40;57.60;;;;;;5073173;28;20174;-64
2022/08/22 13:30:52;;;;;;;4.88;3.70;;;33.30;57.90;;;;;;5074206;28;20181;-65
2022/08/22 13:33:45;;;;;;;4.28;3.83;;;33.00;57.20;;;;;;5072781;28;20265;-65
2022/08/22 13:36:15;;;;;;;3.45;3.00;;;33.10;59.20;;;;;;5073898;28;20226;-66
2022/08/22 13:39:00;;;;;;;4.43;3.47;;;33.10;57.60;;;;;;5073712;28;20201;-64
2022/08/22 13:41:45;;;;;;;5.00;3.75;;;33.20;57.70;;;;;;5073650;28;20216;-65
2022/08/22 13:44:28;;;;;;;4.00;3.60;;;33.30;56.00;;;;;;5073467;28;20186;-65
2022/08/22 13:47:02;;;;;;;3.63;3.28;;;33.40;57.80;;;;;;5073790;28;20650;-65
2022/08/22 13:49:45;;;;;;;6.22;3.50;;;33.50;56.70;;;;;;5073479;28;20643;-66
2022/08/22 13:52:21;;;;;;;3.67;3.05;;;33.70;57.80;;;;;;5073735;28;20166;-66